Startpagina
METAR-TAF:

METAR-TAF

Vliegvelden :

Peer, België

Vliegbasis Kleine-Brogel

breedte: 51-10N, lengte: 005-28E, hoogte: 55 m

Actueel weer

Dit bericht is 42 minuten geleden gemaakt, om 10:25 UTC
Wind 8 kt uit het oosten
Temperatuur 24°C
Vochtigheid 44%
Druk 1022 hPa
Zicht 10 km of meer

METAR: EBBL 261025Z AUTO 09008KT 9999 NCD 24/11 Q1022 BLU

Tijdstip: 13:07 (11:07 UTC)

Verwachting

Dit bericht is 19 uur en het 26 minuten geleden gemaakt, om 15:41 UTC
Verwachting geldig van 25 om 19 UTC tot 26 om 07 UTC
Wind 8 kt uit het oostnoordoosten
Zicht 10 km of meer
Onbewolkt

TAF: EBBL 251541Z 2519/2607 07008KT 9999 SKC BY EBWM

Waarnemingen en weersverwachtingen van meer dan 4000 vliegvelden (METAR en TAF).

De beschikbare stations zijn de gele en rode punten op de kaart.

Ga met uw muis naar het station om de naam te zien.

Klik dan om waarnemingen en weersverwachtingen te zien.

kaart wijzigen: klik op de groene knoppen met een zwart kruis om in te zoomen, op de groene knop met een streepje om uit te zoomen of op de groene pijlen voor aangrenzende kaarten.


METAR-TAF: